createdAt,value
2019-04-06T00:02:29.671Z,67.40
2019-04-06T00:07:30.898Z,55.78
2019-04-06T00:12:32.254Z,60.10
2019-04-06T00:17:33.619Z,54.93
2019-04-06T00:22:34.943Z,55.60
2019-04-06T00:27:36.203Z,54.75
2019-04-06T00:32:55.870Z,49.88
2019-04-06T00:37:57.251Z,50.88
2019-04-06T00:42:59.259Z,45.88
2019-04-06T00:48:00.471Z,48.52
2019-04-06T00:53:01.852Z,49.27
2019-04-06T00:58:03.228Z,52.78
2019-04-06T01:03:04.590Z,50.88
2019-04-06T01:08:06.229Z,50.52
2019-04-06T01:13:07.563Z,52.55
2019-04-06T01:18:09.128Z,48.35
2019-04-06T01:23:10.378Z,47.08
2019-04-06T01:28:11.753Z,49.05
2019-04-06T01:33:13.146Z,49.20
2019-04-06T01:38:14.658Z,49.18
2019-04-06T01:43:16.071Z,48.23
2019-04-06T01:48:17.424Z,43.63
2019-04-06T01:53:18.741Z,37.05
2019-04-06T01:58:20.035Z,38.25
2019-04-06T02:03:22.637Z,42.10
2019-04-06T02:08:23.875Z,39.78
2019-04-06T02:13:25.206Z,43.60
2019-04-06T02:18:26.550Z,55.12
2019-04-06T02:23:27.953Z,53.73
2019-04-06T02:28:29.259Z,72.90
2019-04-06T02:33:38.275Z,63.42
2019-04-06T02:38:58.396Z,60.40
2019-04-06T02:43:59.690Z,57.05
2019-04-06T02:49:01.699Z,62.55
2019-04-06T02:54:03.330Z,72.20
2019-04-06T02:59:04.696Z,79.22
2019-04-06T03:04:06.095Z,67.15
2019-04-06T03:09:11.006Z,56.13
2019-04-06T03:14:10.878Z,65.08
2019-04-06T03:19:12.364Z,65.75
2019-04-06T03:24:14.307Z,57.70
2019-04-06T03:29:15.708Z,48.17
2019-04-06T03:34:20.488Z,47.90
2019-04-06T03:39:20.192Z,51.25
2019-04-06T03:44:21.740Z,45.75
2019-04-06T03:49:23.614Z,50.20
2019-04-06T03:54:24.973Z,54.00
2019-04-06T03:59:26.416Z,44.18
2019-04-06T04:04:27.678Z,42.85
2019-04-06T04:09:28.902Z,46.77
2019-04-06T04:14:30.357Z,40.05
2019-04-06T04:19:31.597Z,35.68
2019-04-06T04:24:32.860Z,43.58
2019-04-06T04:29:34.236Z,35.15
2019-04-06T04:34:35.579Z,33.83
2019-04-06T04:39:36.982Z,39.23
2019-04-06T04:44:38.412Z,41.37
2019-04-06T04:49:39.747Z,43.02
2019-04-06T04:54:41.216Z,41.28
2019-04-06T04:59:42.650Z,40.55
2019-04-06T05:04:44.039Z,33.13
2019-04-06T05:09:45.301Z,44.05
2019-04-06T05:15:05.199Z,45.52
2019-04-06T05:20:07.714Z,41.05
2019-04-06T05:25:09.473Z,41.37
2019-04-06T05:30:11.823Z,38.23
2019-04-06T05:35:14.285Z,48.02
2019-04-06T05:40:15.700Z,47.20
2019-04-06T05:45:17.069Z,53.00
2019-04-06T05:50:18.679Z,41.98
2019-04-06T05:55:20.071Z,51.77
2019-04-06T06:00:21.348Z,53.15
2019-04-06T06:05:22.727Z,44.63
2019-04-06T06:10:24.333Z,54.50
2019-04-06T06:15:25.549Z,48.80
2019-04-06T06:20:26.991Z,49.65
2019-04-06T06:25:30.045Z,47.75
2019-04-06T06:30:31.560Z,61.63
2019-04-06T06:35:32.936Z,50.78
2019-04-06T06:40:34.564Z,50.90
2019-04-06T06:45:35.893Z,46.10
2019-04-06T06:50:37.164Z,46.88
2019-04-06T06:55:38.543Z,52.73
2019-04-06T07:00:39.984Z,49.67
2019-04-06T07:05:41.423Z,51.40
2019-04-06T07:10:42.890Z,57.53
2019-04-06T07:15:44.309Z,52.27
2019-04-06T07:20:45.619Z,54.67
2019-04-06T07:25:56.929Z,60.88
2019-04-06T07:30:50.241Z,57.40
2019-04-06T07:35:51.634Z,53.23
2019-04-06T07:40:53.347Z,46.05
2019-04-06T07:45:54.631Z,54.03
2019-04-06T07:50:55.924Z,52.78
2019-04-06T07:55:57.335Z,65.45
2019-04-06T08:00:58.659Z,65.10
2019-04-06T08:06:00.189Z,64.10
2019-04-06T08:11:01.606Z,51.80
2019-04-06T08:16:03.384Z,61.00
2019-04-06T08:21:04.886Z,59.70
2019-04-06T08:26:06.300Z,48.95
2019-04-06T08:31:07.763Z,60.88
2019-04-06T08:36:09.388Z,59.03
2019-04-06T08:41:10.777Z,60.00
2019-04-06T08:46:12.759Z,55.30
2019-04-06T08:51:14.080Z,77.37
2019-04-06T08:56:15.528Z,45.75
2019-04-06T09:01:16.888Z,54.45
2019-04-06T09:06:18.413Z,56.33
2019-04-06T09:11:19.793Z,78.85
2019-04-06T09:16:21.375Z,51.73
2019-04-06T09:21:26.260Z,154.78
2019-04-06T09:26:27.828Z,43.13
2019-04-06T09:31:29.368Z,49.53
2019-04-06T09:36:31.207Z,42.78
2019-04-06T09:41:32.872Z,48.87
2019-04-06T09:46:36.500Z,53.87
2019-04-06T09:51:39.998Z,55.15
2019-04-06T09:57:00.303Z,53.87
2019-04-06T10:02:06.594Z,39.20
2019-04-06T10:07:18.726Z,45.05
2019-04-06T10:12:28.062Z,49.42
2019-04-06T10:17:34.717Z,40.45
2019-04-06T10:22:40.796Z,48.92
2019-04-06T10:27:55.421Z,40.58
2019-04-06T10:33:07.753Z,54.42
2019-04-06T10:38:14.035Z,46.55
2019-04-06T10:43:20.575Z,62.33
2019-04-06T10:48:24.337Z,78.42
2019-04-06T10:53:30.534Z,55.48
2019-04-06T10:58:36.858Z,44.20
2019-04-06T11:03:49.253Z,57.88
2019-04-06T11:08:58.729Z,65.05
2019-04-06T11:14:04.833Z,57.53
2019-04-06T11:19:11.182Z,50.43
2019-04-06T11:24:14.696Z,51.18
2019-04-06T11:29:24.209Z,57.58
2019-04-06T11:34:29.692Z,70.10
2019-04-06T11:39:33.446Z,65.12
2019-04-06T11:44:46.255Z,47.17
2019-04-06T11:49:53.144Z,18.20
2019-04-06T11:55:11.971Z,14.95
2019-04-06T12:05:20.674Z,13.75
2019-04-06T12:10:33.004Z,12.90
2019-04-06T12:15:53.114Z,16.62
2019-04-06T12:20:59.392Z,31.00
2019-04-06T12:26:05.482Z,10.40
2019-04-06T12:31:26.813Z,12.90
2019-04-06T12:36:36.035Z,10.60
2019-04-06T12:41:56.477Z,9.80
2019-04-06T12:46:59.877Z,12.00
2019-04-06T12:52:03.846Z,8.65
2019-04-06T12:57:07.466Z,29.65
2019-04-06T13:02:10.793Z,24.00
2019-04-06T13:07:26.107Z,17.02
2019-04-06T13:12:35.658Z,28.95
2019-04-06T13:17:39.139Z,26.25
2019-04-06T13:22:45.699Z,23.07
2019-04-06T13:27:58.432Z,21.25
2019-04-06T13:33:08.473Z,14.90
2019-04-06T13:38:28.428Z,17.48
2019-04-06T13:43:48.461Z,23.42
2019-04-06T13:48:54.794Z,26.37
2019-04-06T13:54:10.492Z,26.75
2019-04-06T13:59:29.348Z,31.52
2019-04-06T14:04:33.895Z,34.65
2019-04-06T14:09:38.022Z,32.15
2019-04-06T14:15:06.870Z,22.67
2019-04-06T14:20:21.413Z,42.58
2019-04-06T14:25:27.977Z,42.17
2019-04-06T14:30:33.414Z,35.75
2019-04-06T14:35:37.027Z,26.37
2019-04-06T14:40:49.174Z,25.23
2019-04-06T14:45:55.584Z,27.15
2019-04-06T14:51:16.311Z,25.43
2019-04-06T14:56:25.506Z,26.00
2019-04-06T15:01:58.295Z,61.85
2019-04-06T15:07:11.607Z,19.60
2019-04-06T15:12:16.233Z,21.60
2019-04-06T15:17:20.130Z,39.27
2019-04-06T15:22:27.155Z,55.80
2019-04-06T15:27:47.799Z,55.12
2019-04-06T15:33:09.342Z,47.70
2019-04-06T15:38:30.914Z,111.22
2019-04-06T15:43:37.606Z,39.88
2019-04-06T15:48:44.301Z,48.95
2019-04-06T15:54:01.319Z,38.38
2019-04-06T15:59:11.307Z,40.23
2019-04-06T16:04:32.439Z,39.00
2019-04-06T16:09:45.577Z,51.85
2019-04-06T16:15:01.014Z,53.45
2019-04-06T16:20:15.450Z,91.78
2019-04-06T16:25:21.917Z,87.00
2019-04-06T16:30:25.805Z,103.27
2019-04-06T16:35:29.485Z,57.98
2019-04-06T16:40:32.997Z,65.12
2019-04-06T16:45:42.205Z,57.27
2019-04-06T16:50:48.766Z,53.60
2019-04-06T16:55:54.703Z,38.58
2019-04-06T17:01:04.255Z,32.75
2019-04-06T17:06:24.832Z,40.28
2019-04-06T17:11:45.388Z,28.85
2019-04-06T17:17:01.359Z,27.70
2019-04-06T17:22:16.957Z,30.02
2019-04-06T17:27:29.341Z,25.50
2019-04-06T18:01:30.094Z,21.27
2019-04-06T18:06:52.978Z,29.15
2019-04-06T18:12:17.411Z,27.80
2019-04-06T18:22:51.657Z,18.42
2019-04-06T18:50:02.714Z,54.63
2019-04-06T18:55:07.503Z,54.08
2019-04-06T19:00:27.950Z,42.95
2019-04-06T19:05:33.486Z,42.43
2019-04-06T19:10:38.114Z,39.80
2019-04-06T19:45:15.840Z,46.83
2019-04-06T19:50:23.337Z,47.03
2019-04-06T20:48:16.881Z,47.70
2019-04-06T20:53:24.230Z,45.43
2019-04-06T21:21:15.397Z,39.83
2019-04-06T21:48:53.760Z,42.40
2019-04-06T21:53:58.928Z,38.10
2019-04-06T21:59:02.862Z,41.08
2019-04-06T22:04:06.699Z,37.48
2019-04-06T22:09:12.713Z,33.40
2019-04-06T22:14:17.575Z,35.48
2019-04-06T22:19:21.557Z,28.85
2019-04-06T22:24:25.261Z,33.20
2019-04-06T22:29:28.934Z,34.45
2019-04-06T22:34:38.545Z,36.53
2019-04-06T22:39:37.989Z,35.65
2019-04-06T22:44:41.783Z,36.77
2019-04-06T22:49:45.592Z,37.35
2019-04-06T22:54:49.325Z,37.45
2019-04-06T22:59:52.986Z,34.13
2019-04-06T23:04:58.342Z,35.50
2019-04-06T23:10:02.133Z,35.83
2019-04-06T23:15:07.332Z,32.15
2019-04-06T23:20:11.206Z,35.63
2019-04-06T23:25:15.023Z,31.73
2019-04-06T23:30:18.721Z,32.03
2019-04-06T23:35:22.392Z,29.40
2019-04-06T23:40:26.233Z,30.65
2019-04-06T23:45:29.997Z,31.60
2019-04-06T23:50:33.819Z,33.75
2019-04-06T23:55:37.711Z,31.00
